Time;durP1;ratioP1;P1;durP2;ratioP2;P2;SDS_P1;SDS_P2;PMS_P1;PMS_P2;Temp;Humidity;BMP_temperature;BMP_pressure;BME280_temperature;BME280_humidity;BME280_pressure;Samples;Min_cycle;Max_cycle;Signal;HPM_P1;HPM_P2
2023/03/31 00:01:32;;;;;;;9.25;3.00;;;;;;;10.31;99.90;100356.88;4945984;28;20123;-68
2023/03/31 00:04:02;;;;;;;9.23;2.90;;;;;;;10.28;100.00;100331.66;4946892;28;20138;-68
2023/03/31 00:06:28;;;;;;;10.40;3.40;;;;;;;10.26;100.00;100323.81;4949175;28;20038;-68
2023/03/31 00:08:53;;;;;;;11.45;3.08;;;;;;;10.24;100.00;100319.47;4948765;28;20035;-68
2023/03/31 00:11:20;;;;;;;9.07;2.90;;;;;;;10.19;100.00;100301.13;4946656;28;20497;-68
2023/03/31 00:13:46;;;;;;;9.15;2.47;;;;;;;10.18;100.00;100298.50;4930314;28;20458;-68
2023/03/31 00:16:12;;;;;;;7.60;2.15;;;;;;;10.14;100.00;100295.00;4947925;28;20279;-68
2023/03/31 00:18:46;;;;;;;10.35;2.95;;;;;;;10.12;100.00;100291.47;4948841;28;20042;-68
2023/03/31 00:21:23;;;;;;;9.77;2.80;;;;;;;10.09;100.00;100283.63;4946978;28;20114;-68
2023/03/31 00:23:55;;;;;;;10.00;2.50;;;;;;;10.08;100.00;100271.47;4932190;28;20487;-68
2023/03/31 00:26:25;;;;;;;8.85;2.30;;;;;;;10.06;100.00;100274.03;4947708;28;20398;-68
2023/03/31 00:28:51;;;;;;;8.48;2.50;;;;;;;10.04;100.00;100267.94;4948177;28;20059;-67
2023/03/31 00:31:17;;;;;;;9.40;2.55;;;;;;;10.03;100.00;100257.50;4945789;28;20027;-68
2023/03/31 00:33:42;;;;;;;10.30;2.22;;;;;;;10.02;100.00;100258.34;4945809;28;20638;-68
2023/03/31 00:36:08;;;;;;;11.05;2.60;;;;;;;10.00;100.00;100250.50;4947865;28;20102;-64
2023/03/31 00:38:34;;;;;;;7.40;2.17;;;;;;;10.01;100.00;100247.06;4947840;28;20038;-64
2023/03/31 00:41:00;;;;;;;8.10;2.45;;;;;;;9.99;100.00;100242.69;4944747;28;20062;-63
2023/03/31 00:43:30;;;;;;;13.57;2.72;;;;;;;9.96;100.00;100233.09;4941783;28;21141;-63
2023/03/31 00:46:18;;;;;;;13.07;2.78;;;;;;;9.93;100.00;100225.22;4930031;28;20458;-63
2023/03/31 00:48:50;;;;;;;8.77;2.42;;;;;;;9.92;100.00;100224.38;4947241;28;20101;-63
2023/03/31 00:51:17;;;;;;;8.70;2.85;;;;;;;9.91;100.00;100217.41;4946838;28;20045;-63
2023/03/31 00:53:47;;;;;;;8.90;2.50;;;;;;;9.92;100.00;100219.16;4946703;28;20143;-63
2023/03/31 00:56:15;;;;;;;9.15;2.67;;;;;;;9.96;100.00;100224.41;4947012;28;20038;-64
2023/03/31 00:58:44;;;;;;;9.40;2.40;;;;;;;9.96;100.00;100214.00;4947627;28;20027;-63
2023/03/31 01:01:15;;;;;;;8.43;2.10;;;;;;;9.97;100.00;100205.34;4946089;28;20084;-63
2023/03/31 01:03:41;;;;;;;9.38;2.13;;;;;;;9.98;100.00;100201.88;4947742;28;20050;-63
2023/03/31 01:06:09;;;;;;;9.48;2.58;;;;;;;9.98;100.00;100201.88;4947867;28;20023;-63
2023/03/31 01:08:37;;;;;;;13.50;2.47;;;;;;;9.99;100.00;100207.09;4947225;28;20110;-67
2023/03/31 01:11:09;;;;;;;11.73;2.30;;;;;;;10.01;100.00;100197.59;4945853;28;20109;-67
2023/03/31 01:13:37;;;;;;;9.50;2.40;;;;;;;10.02;100.00;100195.88;4928995;28;20027;-67
2023/03/31 01:16:02;;;;;;;9.80;2.42;;;;;;;10.04;100.00;100191.59;4948427;28;20406;-67
2023/03/31 01:18:28;;;;;;;7.95;2.20;;;;;;;10.05;100.00;100193.31;4947750;28;20034;-67
2023/03/31 01:21:29;;;;;;;8.73;2.00;;;;;;;10.06;100.00;100169.91;4948235;28;20086;-67
2023/03/31 01:24:34;;;;;;;10.65;2.35;;;;;;;10.08;100.00;100167.34;4947846;28;20023;-67
2023/03/31 01:27:16;;;;;;;10.95;2.58;;;;;;;10.10;100.00;100165.63;4948309;28;20034;-68
2023/03/31 01:30:03;;;;;;;10.75;2.78;;;;;;;10.09;100.00;100153.47;4948644;28;20573;-67
2023/03/31 01:32:34;;;;;;;9.77;2.88;;;;;;;10.08;100.00;100151.75;4948242;28;20035;-67
2023/03/31 01:35:29;;;;;;;11.23;2.40;;;;;;;10.08;100.00;100146.53;4947800;28;20027;-68
2023/03/31 01:38:33;;;;;;;12.52;2.38;;;;;;;10.08;100.00;100141.31;4947944;28;20553;-68
2023/03/31 01:41:16;;;;;;;11.13;2.45;;;;;;;10.08;100.00;100136.97;4948008;28;20070;-68
2023/03/31 01:43:42;;;;;;;9.38;2.33;;;;;;;10.10;100.00;100131.81;4945212;28;20042;-68
2023/03/31 01:46:19;;;;;;;9.80;2.70;;;;;;;10.09;100.00;100133.53;4930656;28;20035;-68
2023/03/31 01:49:20;;;;;;;13.60;2.65;;;;;;;10.12;100.00;100121.41;4947923;28;20282;-68
2023/03/31 01:51:55;;;;;;;9.38;2.60;;;;;;;10.12;100.00;100122.28;4934574;28;20043;-68
2023/03/31 01:54:58;;;;;;;13.73;2.97;;;;;;;10.13;100.00;100103.19;4946011;28;20023;-68
2023/03/31 01:57:33;;;;;;;13.68;2.88;;;;;;;10.13;100.00;100094.53;4947728;28;20035;-68
2023/03/31 02:00:36;;;;;;;10.48;2.63;;;;;;;10.13;100.00;100082.38;4947457;28;20027;-68
2023/03/31 02:03:24;;;;;;;13.45;2.80;;;;;;;10.15;100.00;100085.84;4916521;28;20039;-68
2023/03/31 02:05:56;;;;;;;10.55;2.63;;;;;;;10.12;100.00;100075.41;4948437;28;20495;-68
2023/03/31 02:08:28;;;;;;;10.38;2.50;;;;;;;10.13;100.00;100068.50;4949990;28;20027;-68
2023/03/31 02:10:54;;;;;;;11.73;2.40;;;;;;;10.13;100.00;100056.34;4950732;28;20051;-68
2023/03/31 02:13:22;;;;;;;10.70;2.50;;;;;;;10.10;100.00;100046.75;4951070;28;20023;-68
2023/03/31 02:15:53;;;;;;;11.93;2.58;;;;;;;10.11;100.00;100047.66;4949825;28;20027;-68
2023/03/31 02:18:21;;;;;;;14.68;2.75;;;;;;;10.09;100.00;100029.41;4951443;28;20047;-68
2023/03/31 02:20:48;;;;;;;12.77;2.88;;;;;;;10.07;100.00;100020.69;4950191;28;20051;-68
2023/03/31 02:23:18;;;;;;;11.30;2.67;;;;;;;10.08;100.00;100013.78;4950554;28;20077;-68
2023/03/31 02:25:51;;;;;;;11.43;2.38;;;;;;;10.07;100.00;100005.06;4951035;28;20023;-68
2023/03/31 02:28:22;;;;;;;10.13;2.40;;;;;;;10.07;100.00;99993.81;4951258;28;20038;-68
2023/03/31 02:30:56;;;;;;;8.30;2.53;;;;;;;10.05;100.00;99988.59;4950742;28;20043;-68
2023/03/31 02:33:21;;;;;;;11.95;2.70;;;;;;;10.03;100.00;99977.25;4951219;28;20543;-68
2023/03/31 02:35:47;;;;;;;14.80;3.13;;;;;;;10.02;100.00;99972.03;4951574;28;20114;-68
2023/03/31 02:38:12;;;;;;;13.05;3.08;;;;;;;10.01;100.00;99972.91;4951318;28;20038;-68
2023/03/31 02:40:38;;;;;;;12.93;3.20;;;;;;;9.98;100.00;99965.06;4950849;28;20050;-68
2023/03/31 02:43:03;;;;;;;13.20;2.97;;;;;;;9.97;100.00;99942.50;4950215;28;20055;-68
2023/03/31 02:45:42;;;;;;;11.70;2.72;;;;;;;9.98;100.00;99932.13;4950680;28;20035;-68
2023/03/31 02:48:15;;;;;;;14.15;3.13;;;;;;;9.98;100.00;99931.22;4951106;28;20046;-68
2023/03/31 02:51:08;;;;;;;12.32;2.63;;;;;;;9.96;100.00;99922.53;4949077;28;20082;-68
2023/03/31 02:53:49;;;;;;;14.30;3.00;;;;;;;9.94;100.00;99908.66;4949689;28;21048;-68
2023/03/31 02:56:44;;;;;;;14.75;3.10;;;;;;;9.90;100.00;99905.13;4950371;28;20053;-68
2023/03/31 02:59:26;;;;;;;14.35;2.95;;;;;;;9.89;100.00;99900.75;4949891;28;20134;-69
2023/03/31 03:02:06;;;;;;;11.73;3.63;;;;;;;9.88;100.00;99893.84;4949141;28;20450;-69
2023/03/31 03:04:50;;;;;;;15.98;3.50;;;;;;;9.87;100.00;99885.13;4950809;28;20035;-68
2023/03/31 03:07:28;;;;;;;12.75;3.25;;;;;;;9.88;100.00;99873.03;4950948;28;20054;-68
2023/03/31 03:10:06;;;;;;;14.48;3.17;;;;;;;9.88;100.00;99875.63;4930885;28;20490;-68
2023/03/31 03:13:10;;;;;;;9.88;2.83;;;;;;;9.88;100.00;99871.28;4950850;28;20263;-68
2023/03/31 03:15:45;;;;;;;14.30;3.13;;;;;;;9.89;100.00;99872.16;4947678;28;20069;-68
2023/03/31 03:18:10;;;;;;;14.13;3.10;;;;;;;9.89;100.00;99869.53;4950275;28;20067;-68
2023/03/31 03:20:37;;;;;;;14.65;3.35;;;;;;;9.89;100.00;99862.63;4948866;28;20415;-68
2023/03/31 03:23:03;;;;;;;21.00;3.70;;;;;;;9.88;100.00;99855.66;4950308;28;20038;-68
2023/03/31 03:25:29;;;;;;;12.30;3.42;;;;;;;9.89;100.00;99865.22;4950105;28;20042;-68
2023/03/31 03:27:54;;;;;;;13.07;3.30;;;;;;;9.88;100.00;99858.28;4949771;28;20058;-68
2023/03/31 03:30:20;;;;;;;16.63;3.05;;;;;;;9.88;100.00;99862.63;4949429;28;20406;-68
2023/03/31 03:32:46;;;;;;;11.68;2.65;;;;;;;9.88;100.00;99857.41;4950358;28;20030;-69
2023/03/31 03:35:11;;;;;;;9.70;2.72;;;;;;;9.86;100.00;99853.91;4949572;28;20074;-68
2023/03/31 03:37:37;;;;;;;10.65;2.80;;;;;;;9.86;100.00;99843.50;4949707;28;20023;-68
2023/03/31 03:40:04;;;;;;;17.15;3.30;;;;;;;9.86;100.00;99843.50;4948970;28;20487;-68
2023/03/31 03:42:30;;;;;;;11.75;2.58;;;;;;;9.84;100.00;99835.69;4949968;28;20046;-68
2023/03/31 03:44:55;;;;;;;13.23;3.08;;;;;;;9.84;100.00;99819.19;4950096;28;20499;-68
2023/03/31 03:47:21;;;;;;;10.57;2.63;;;;;;;9.81;100.00;99809.63;4950173;28;20392;-68
2023/03/31 03:49:47;;;;;;;14.02;2.67;;;;;;;9.81;100.00;99808.78;4931514;28;20517;-68
2023/03/31 03:52:13;;;;;;;13.60;3.03;;;;;;;9.78;100.00;99795.75;4948989;28;20148;-69
2023/03/31 03:54:38;;;;;;;10.55;2.80;;;;;;;9.77;100.00;99789.63;4950271;28;20072;-68
2023/03/31 03:57:04;;;;;;;12.15;2.67;;;;;;;9.75;100.00;99783.56;4949964;28;20046;-68
2023/03/31 03:59:29;;;;;;;11.32;2.53;;;;;;;9.74;100.00;99768.81;4949116;28;20031;-68
2023/03/31 04:01:54;;;;;;;9.57;2.38;;;;;;;9.72;100.00;99768.78;4949536;28;20122;-68
2023/03/31 04:04:20;;;;;;;16.48;2.88;;;;;;;9.69;100.00;99763.56;4949601;28;20061;-68
2023/03/31 04:06:45;;;;;;;9.40;2.17;;;;;;;9.68;100.00;99760.94;4930941;28;20094;-71
2023/03/31 04:09:10;;;;;;;11.88;2.50;;;;;;;9.69;100.00;99749.66;4949167;28;20023;-71
2023/03/31 04:11:36;;;;;;;11.95;2.70;;;;;;;9.66;100.00;99750.53;4949567;28;20054;-71
2023/03/31 04:14:01;;;;;;;11.32;2.67;;;;;;;9.65;100.00;99740.97;4949490;28;20038;-71
2023/03/31 04:16:27;;;;;;;10.60;2.38;;;;;;;9.64;100.00;99734.03;4949674;28;20066;-71
2023/03/31 04:18:58;;;;;;;13.52;2.50;;;;;;;9.65;100.00;99732.31;5002830;23;20066;-95
2023/03/31 04:21:33;;;;;;;8.80;2.25;;;;;;;9.60;100.00;99713.19;4957091;28;20035;-96
2023/03/31 04:24:03;;;;;;;11.48;2.33;;;;;;;9.59;100.00;99707.13;4997580;23;20055;-96
2023/03/31 04:26:41;;;;;;;11.48;2.20;;;;;;;9.59;100.00;99701.91;4928842;29;20163;-96
2023/03/31 04:29:15;;;;;;;8.55;2.03;;;;;;;9.57;100.00;99683.69;4926999;29;20582;-96
2023/03/31 04:31:41;;;;;;;10.80;2.42;;;;;;;9.55;100.00;99684.53;4947720;29;20114;-96
2023/03/31 04:34:21;;;;;;;8.70;2.10;;;;;;;9.56;100.00;99684.56;4942802;28;20060;-96
2023/03/31 04:36:49;;;;;;;14.95;2.75;;;;;;;9.57;100.00;99677.63;4961206;28;20043;-96
2023/03/31 04:39:25;;;;;;;13.07;2.40;;;;;;;9.56;100.00;99668.09;4946540;28;20417;-96
2023/03/31 04:41:52;;;;;;;14.30;2.67;;;;;;;9.56;100.00;99662.88;4964111;28;20095;-96
2023/03/31 04:44:18;;;;;;;9.48;2.00;;;;;;;9.56;100.00;99657.69;4959778;28;20032;-96
2023/03/31 04:46:49;;;;;;;13.10;2.10;;;;;;;9.56;100.00;99653.34;4943578;28;20032;-96
2023/03/31 04:49:28;;;;;;;7.78;1.80;;;;;;;9.57;100.00;99647.28;4958563;28;20106;-96
2023/03/31 04:51:56;;;;;;;9.23;2.10;;;;;;;9.60;100.00;99642.97;4957702;28;20023;-96
2023/03/31 04:54:24;;;;;;;10.68;2.35;;;;;;;9.58;100.00;99630.81;4946342;28;20031;-96
2023/03/31 04:56:50;;;;;;;9.45;2.33;;;;;;;9.58;100.00;99636.00;4958714;28;20039;-96
2023/03/31 04:59:18;;;;;;;12.68;2.20;;;;;;;9.58;100.00;99630.81;4963427;28;20027;-96
2023/03/31 05:01:44;;;;;;;14.30;2.33;;;;;;;9.57;100.00;99621.28;4959739;28;20401;-96
2023/03/31 05:04:09;;;;;;;11.43;2.70;;;;;;;9.56;100.00;99629.09;4959402;28;20030;-96
2023/03/31 05:06:35;;;;;;;7.13;2.10;;;;;;;9.55;100.00;99620.38;4966692;28;20023;-96
2023/03/31 05:09:01;;;;;;;12.82;2.17;;;;;;;9.54;100.00;99622.97;4948628;29;20028;-96
2023/03/31 05:11:28;;;;;;;9.80;2.20;;;;;;;9.53;100.00;99624.72;4941731;29;20453;-96
2023/03/31 05:13:57;;;;;;;9.60;2.20;;;;;;;9.53;100.00;99603.03;4949435;29;20031;-96
2023/03/31 05:16:25;;;;;;;12.60;2.07;;;;;;;9.52;100.00;99594.38;4944220;28;20035;-96
2023/03/31 05:18:50;;;;;;;9.55;2.35;;;;;;;9.52;100.00;99599.56;4939595;28;20031;-96
2023/03/31 05:21:19;;;;;;;14.00;2.72;;;;;;;9.50;100.00;99588.28;4940616;29;20027;-96
2023/03/31 05:23:47;;;;;;;7.27;2.10;;;;;;;9.49;100.00;99583.09;4944326;28;20048;-96
2023/03/31 05:26:15;;;;;;;7.55;2.15;;;;;;;9.51;100.00;99578.75;4947777;28;20019;-96
2023/03/31 05:28:41;;;;;;;10.45;2.63;;;;;;;9.51;100.00;99574.41;4937675;29;20023;-96
2023/03/31 05:31:13;;;;;;;7.30;2.92;;;;;;;9.51;100.00;99577.00;4959147;28;20031;-96
2023/03/31 05:33:40;;;;;;;9.90;2.88;;;;;;;9.53;100.00;99564.91;4959267;28;20055;-96
2023/03/31 05:36:07;;;;;;;8.93;2.33;;;;;;;9.53;100.00;99567.50;4941276;29;20028;-96
2023/03/31 05:38:36;;;;;;;8.88;2.40;;;;;;;9.52;100.00;99555.38;4942761;29;20078;-96
2023/03/31 05:41:01;;;;;;;10.00;2.40;;;;;;;9.50;100.00;99558.81;4937548;28;20028;-96
2023/03/31 05:43:34;;;;;;;9.45;2.60;;;;;;;9.49;100.00;99557.09;4943106;29;20027;-96
2023/03/31 05:46:03;;;;;;;7.55;2.40;;;;;;;9.50;100.00;99558.81;4949054;28;20023;-96
2023/03/31 05:48:33;;;;;;;9.10;2.47;;;;;;;9.48;100.00;99552.75;4951448;29;20035;-96
2023/03/31 05:51:00;;;;;;;11.38;2.50;;;;;;;9.48;100.00;99560.53;4942924;29;20035;-96
2023/03/31 05:53:26;;;;;;;7.70;2.25;;;;;;;9.46;100.00;99547.53;4958788;28;20031;-96
2023/03/31 05:56:01;;;;;;;6.93;2.05;;;;;;;9.47;100.00;99546.69;4957318;28;20042;-96
2023/03/31 05:58:30;;;;;;;8.65;2.42;;;;;;;9.45;100.00;99540.56;4948628;29;20109;-96
2023/03/31 06:01:06;;;;;;;7.95;2.50;;;;;;;9.45;100.00;99548.38;4958774;28;20024;-96
2023/03/31 06:03:36;;;;;;;9.48;2.28;;;;;;;9.45;100.00;99550.97;4949147;29;20481;-96
2023/03/31 06:06:04;;;;;;;10.40;2.40;;;;;;;9.43;100.00;99531.91;4958010;28;20028;-96
2023/03/31 06:08:33;;;;;;;8.25;2.25;;;;;;;9.40;100.00;99547.50;4963380;28;20024;-95
2023/03/31 06:10:59;;;;;;;9.70;2.38;;;;;;;9.42;100.00;99535.38;4959275;28;20035;-96
2023/03/31 06:13:26;;;;;;;9.27;2.25;;;;;;;9.43;100.00;99531.03;4940799;28;20039;-96
2023/03/31 06:15:57;;;;;;;10.98;2.70;;;;;;;9.42;100.00;99513.69;4960577;28;20023;-96
2023/03/31 06:18:22;;;;;;;11.07;2.80;;;;;;;9.40;100.00;99516.28;4956539;28;20032;-96
2023/03/31 06:20:48;;;;;;;9.82;2.40;;;;;;;9.40;100.00;99500.69;4945892;29;20038;-96
2023/03/31 06:23:16;;;;;;;9.23;2.35;;;;;;;9.37;100.00;99498.06;4962847;28;20046;-96
2023/03/31 06:25:44;;;;;;;9.20;2.65;;;;;;;9.41;100.00;99486.81;4945575;29;20099;-96
2023/03/31 06:28:18;;;;;;;7.95;2.67;;;;;;;9.44;100.00;99494.63;4968589;28;20027;-96
2023/03/31 06:30:46;;;;;;;10.30;3.03;;;;;;;9.48;100.00;99487.72;4962259;28;20048;-96
2023/03/31 06:33:12;;;;;;;13.87;3.20;;;;;;;9.48;100.00;99470.41;4962710;28;20028;-96
2023/03/31 06:35:39;;;;;;;8.32;2.63;;;;;;;9.49;100.00;99492.09;4949640;28;20289;-96
2023/03/31 06:38:05;;;;;;;10.90;2.63;;;;;;;9.48;100.00;99499.00;4957976;28;20024;-96
2023/03/31 06:40:31;;;;;;;10.82;3.00;;;;;;;9.48;100.00;99501.59;4952268;28;20034;-96
2023/03/31 06:42:56;;;;;;;7.35;2.95;;;;;;;9.47;100.00;99501.59;4943142;28;20023;-96
2023/03/31 06:45:25;;;;;;;10.60;3.80;;;;;;;9.45;100.00;99498.97;4941074;29;20027;-96
2023/03/31 06:47:50;;;;;;;8.82;3.45;;;;;;;9.45;100.00;99466.91;4945697;28;20074;-96
2023/03/31 06:50:18;;;;;;;8.35;3.20;;;;;;;9.44;100.00;99481.63;4941862;29;20028;-96
2023/03/31 06:52:47;;;;;;;9.25;3.22;;;;;;;9.44;100.00;99497.22;4941821;28;21716;-96
2023/03/31 06:55:14;;;;;;;8.33;3.60;;;;;;;9.46;100.00;99499.84;4959821;28;20509;-96
2023/03/31 06:57:40;;;;;;;12.43;3.42;;;;;;;9.46;100.00;99489.44;4961760;28;20114;-96
2023/03/31 07:00:09;;;;;;;7.95;3.75;;;;;;;9.43;100.00;99466.91;4958700;28;20540;-96
2023/03/31 07:02:37;;;;;;;11.07;3.40;;;;;;;9.44;100.00;99475.56;4962541;28;20409;-96
2023/03/31 07:05:03;;;;;;;10.70;3.40;;;;;;;9.45;100.00;99474.72;4964420;28;20054;-96
2023/03/31 07:07:32;;;;;;;14.80;3.33;;;;;;;9.46;100.00;99489.44;4940705;29;20485;-96
2023/03/31 07:10:00;;;;;;;15.43;3.63;;;;;;;9.49;100.00;99505.94;4961392;28;20027;-96
2023/03/31 07:12:26;;;;;;;16.95;4.05;;;;;;;9.49;100.00;99494.69;4958767;28;20115;-96
2023/03/31 07:14:51;;;;;;;9.90;2.92;;;;;;;9.53;100.00;99486.91;4958635;28;20117;-96
2023/03/31 07:17:17;;;;;;;14.55;4.13;;;;;;;9.55;100.00;99474.78;4943071;28;20557;-96
2023/03/31 07:19:46;;;;;;;12.63;4.88;;;;;;;9.59;100.00;99470.47;4945439;29;20027;-96
2023/03/31 07:22:15;;;;;;;14.02;4.05;;;;;;;9.64;100.00;99467.88;4950136;29;20036;-96
2023/03/31 07:24:43;;;;;;;15.47;3.73;;;;;;;9.66;100.00;99458.34;4951421;28;20079;-96
2023/03/31 07:27:11;;;;;;;11.93;3.95;;;;;;;9.69;100.00;99460.97;4946838;28;20032;-96
2023/03/31 07:29:36;;;;;;;13.82;3.72;;;;;;;9.73;100.00;99441.91;4944765;28;20036;-96
2023/03/31 07:32:02;;;;;;;15.65;3.80;;;;;;;9.75;100.00;99454.06;4946575;28;20414;-96
2023/03/31 07:34:27;;;;;;;10.60;2.90;;;;;;;9.75;100.00;99441.06;4947052;29;20034;-96
2023/03/31 07:36:54;;;;;;;13.73;3.38;;;;;;;9.77;100.00;99442.81;4965065;28;20030;-96
2023/03/31 07:39:19;;;;;;;9.95;2.80;;;;;;;9.79;100.00;99441.06;4946546;28;20023;-96
2023/03/31 07:41:45;;;;;;;13.32;3.20;;;;;;;9.83;100.00;99437.63;4946780;28;20034;-96
2023/03/31 07:44:10;;;;;;;11.68;2.90;;;;;;;9.86;100.00;99441.13;4962018;28;20034;-96
2023/03/31 07:46:36;;;;;;;11.75;2.78;;;;;;;9.88;100.00;99434.19;4967366;28;20544;-96
2023/03/31 07:49:02;;;;;;;13.60;2.70;;;;;;;9.92;100.00;99437.63;4952999;28;20438;-96
2023/03/31 07:51:27;;;;;;;9.43;2.85;;;;;;;9.97;100.00;99435.09;4980564;23;20094;-67
2023/03/31 07:53:53;;;;;;;10.68;3.00;;;;;;;10.02;100.00;99435.94;4949439;28;20058;-67
2023/03/31 07:56:20;;;;;;;11.77;3.20;;;;;;;10.06;100.00;99424.69;4950230;28;20031;-67
2023/03/31 07:58:46;;;;;;;17.60;3.35;;;;;;;10.11;100.00;99422.97;4949782;28;20030;-67
2023/03/31 08:01:16;;;;;;;18.45;3.80;;;;;;;10.16;100.00;99421.25;4948560;28;20027;-67
2023/03/31 08:03:42;;;;;;;14.70;3.80;;;;;;;10.21;100.00;99414.31;4948284;28;20042;-67
2023/03/31 08:06:08;;;;;;;20.48;4.30;;;;;;;10.24;100.00;99419.53;4949694;28;20043;-67
2023/03/31 08:08:33;;;;;;;20.17;4.63;;;;;;;10.27;100.00;99426.47;4964171;28;20023;-67
2023/03/31 08:10:58;;;;;;;18.48;4.22;;;;;;;10.29;100.00;99416.94;4947750;28;20015;-67
2023/03/31 08:13:24;;;;;;;17.27;4.43;;;;;;;10.33;100.00;99417.81;4948386;28;20038;-67
2023/03/31 08:15:50;;;;;;;20.45;5.20;;;;;;;10.38;100.00;99408.28;4949973;28;20399;-67
2023/03/31 08:18:15;;;;;;;22.20;5.25;;;;;;;10.43;100.00;99411.78;4948743;28;20038;-67
2023/03/31 08:20:41;;;;;;;21.75;5.03;;;;;;;10.46;100.00;99406.56;4944121;28;20111;-65
2023/03/31 08:23:10;;;;;;;22.30;4.90;;;;;;;10.51;100.00;99401.38;5187657;23;20057;-96
2023/03/31 08:25:44;;;;;;;21.38;5.32;;;;;;;10.56;100.00;99407.47;4995753;28;20027;-96
2023/03/31 08:28:15;;;;;;;20.20;5.32;;;;;;;10.61;100.00;99403.97;4977037;28;20015;-96
2023/03/31 08:30:41;;;;;;;23.10;5.50;;;;;;;10.65;100.00;99410.06;4976876;28;20007;-96
2023/03/31 08:33:13;;;;;;;23.00;5.05;;;;;;;10.71;100.00;99406.56;4977307;28;20161;-96
2023/03/31 08:35:46;;;;;;;16.17;4.28;;;;;;;10.76;100.00;99408.31;4977340;28;20026;-96
2023/03/31 08:38:12;;;;;;;23.30;5.53;;;;;;;10.81;100.00;99410.06;4978405;28;20031;-96
2023/03/31 08:40:58;;;;;;;24.08;5.00;;;;;;;10.86;100.00;99408.31;4976637;28;20014;-96
2023/03/31 08:43:43;;;;;;;22.45;4.47;;;;;;;10.87;100.00;99403.09;4978693;28;20055;-96
2023/03/31 08:46:20;;;;;;;25.33;5.20;;;;;;;10.91;100.00;99404.81;4976852;28;20057;-96
2023/03/31 08:48:53;;;;;;;23.90;5.07;;;;;;;10.95;100.00;99408.31;4957316;29;20070;-96
2023/03/31 08:51:32;;;;;;;22.85;5.10;;;;;;;10.96;100.00;99394.38;4955764;29;20039;-97
2023/03/31 08:54:09;;;;;;;26.55;5.20;;;;;;;10.99;100.00;99398.72;4958115;28;20046;-96
2023/03/31 08:56:46;;;;;;;28.35;4.88;;;;;;;11.02;100.00;99399.59;4973349;28;20039;-96
2023/03/31 08:59:32;;;;;;;22.92;5.15;;;;;;;11.09;100.00;99397.84;4958661;29;20136;-96
2023/03/31 09:02:09;;;;;;;19.92;6.07;;;;;;;11.12;100.00;99401.31;4957640;29;20046;-96
2023/03/31 09:04:50;;;;;;;27.38;5.45;;;;;;;11.19;100.00;99396.09;4958905;29;20090;-96
2023/03/31 09:07:57;;;;;;;22.90;5.40;;;;;;;11.25;100.00;99394.34;4975781;29;20027;-96
2023/03/31 09:10:52;;;;;;;28.02;5.00;;;;;;;11.31;100.00;99390.81;4975362;28;20185;-96
2023/03/31 09:13:55;;;;;;;22.65;5.28;;;;;;;11.42;100.00;99378.63;4958590;29;20059;-96
2023/03/31 09:17:02;;;;;;;21.63;5.10;;;;;;;11.49;100.00;99382.09;4969040;28;20037;-96
2023/03/31 09:20:13;;;;;;;20.27;4.55;;;;;;;11.59;100.00;99375.97;4968632;29;20043;-96
2023/03/31 09:22:58;;;;;;;25.02;4.50;;;;;;;11.65;99.12;99375.06;4878833;29;20041;-96
2023/03/31 09:25:35;;;;;;;29.13;6.05;;;;;;;11.65;99.80;99380.28;4873561;29;20076;-96
2023/03/31 09:28:16;;;;;;;25.30;4.65;;;;;;;11.63;95.34;99375.06;4920770;29;20079;-96
2023/03/31 09:30:51;;;;;;;27.52;5.53;;;;;;;11.64;96.06;99378.53;4936938;29;20031;-96
2023/03/31 09:33:30;;;;;;;28.38;4.95;;;;;;;11.65;97.14;99368.09;4920944;29;20012;-96
2023/03/31 09:36:23;;;;;;;21.20;4.15;;;;;;;11.63;93.88;99367.25;4937534;29;20031;-96
2023/03/31 09:38:55;;;;;;;19.92;4.00;;;;;;;11.64;92.40;99369.00;4936455;29;20022;-96
2023/03/31 09:41:27;;;;;;;24.67;4.40;;;;;;;11.65;94.22;99362.03;4937421;29;20040;-96
2023/03/31 09:43:59;;;;;;;22.52;4.13;;;;;;;11.70;94.00;99360.25;4949034;29;20072;-96
2023/03/31 09:46:37;;;;;;;21.15;4.22;;;;;;;11.73;92.61;99360.25;4935778;29;20028;-96
2023/03/31 09:49:14;;;;;;;19.27;4.38;;;;;;;11.77;92.03;99353.25;4934912;29;20091;-96
2023/03/31 09:51:46;;;;;;;17.98;3.67;;;;;;;11.85;91.95;99346.25;4933807;29;20044;-96
2023/03/31 09:54:23;;;;;;;20.55;3.88;;;;;;;11.91;90.66;99355.81;4929931;29;20044;-96
2023/03/31 09:56:53;;;;;;;21.80;3.92;;;;;;;11.97;90.65;99347.97;4944714;29;20242;-96
2023/03/31 09:59:36;;;;;;;16.73;3.95;;;;;;;12.03;91.95;99347.91;4931973;29;20036;-96
2023/03/31 10:02:22;;;;;;;15.98;3.35;;;;;;;12.11;90.90;99348.75;4930046;29;20029;-96
2023/03/31 10:04:48;;;;;;;17.92;3.40;;;;;;;12.13;88.81;99341.75;4945314;29;20083;-96
2023/03/31 10:07:23;;;;;;;21.67;3.70;;;;;;;12.16;89.47;99341.72;4931443;29;20024;-96
2023/03/31 10:10:00;;;;;;;19.33;3.63;;;;;;;12.17;88.95;99335.63;4932650;29;20031;-96
2023/03/31 10:12:34;;;;;;;15.35;3.40;;;;;;;12.25;88.65;99337.31;4931775;29;20020;-96
2023/03/31 10:15:21;;;;;;;19.17;3.25;;;;;;;12.33;90.96;99328.53;4931001;29;20112;-96
2023/03/31 10:17:50;;;;;;;17.27;3.75;;;;;;;12.35;87.93;99329.41;4932348;29;20031;-96
2023/03/31 10:20:45;;;;;;;17.00;3.63;;;;;;;12.35;88.87;99332.03;4947293;29;20025;-96
2023/03/31 10:23:40;;;;;;;21.08;3.45;;;;;;;12.36;87.85;99327.66;4927946;29;20048;-96
2023/03/31 10:26:05;;;;;;;15.32;2.90;;;;;;;12.34;89.14;99334.66;4945757;28;20094;-96
2023/03/31 10:28:34;;;;;;;16.83;3.20;;;;;;;12.37;87.36;99320.69;4956525;28;20035;-96
2023/03/31 10:31:03;;;;;;;13.95;2.85;;;;;;;12.35;86.79;99337.25;4956940;29;20038;-96
2023/03/31 10:33:33;;;;;;;19.40;3.25;;;;;;;12.32;86.07;99332.03;4957246;29;20027;-96
2023/03/31 10:36:13;;;;;;;20.13;3.03;;;;;;;12.30;87.28;99320.75;4972967;28;20031;-96
2023/03/31 10:38:43;;;;;;;18.70;2.97;;;;;;;12.27;87.44;99317.31;4954643;29;20408;-96
2023/03/31 10:41:13;;;;;;;13.07;2.50;;;;;;;12.23;85.45;99323.41;4954441;29;20030;-96
2023/03/31 10:43:50;;;;;;;17.00;2.80;;;;;;;12.11;86.76;99321.78;4957122;29;20039;-96
2023/03/31 10:46:19;;;;;;;13.48;2.80;;;;;;;12.06;88.24;99313.94;4971951;28;20034;-96
2023/03/31 10:48:53;;;;;;;17.67;3.67;;;;;;;12.07;87.03;99310.47;4956595;28;20034;-96
2023/03/31 10:51:29;;;;;;;16.85;3.05;;;;;;;12.08;88.83;99312.22;4955917;28;20139;-96
2023/03/31 10:54:03;;;;;;;18.10;2.72;;;;;;;12.14;88.85;99304.31;4955479;29;20069;-96
2023/03/31 10:56:55;;;;;;;19.17;3.25;;;;;;;12.21;89.33;99299.94;4954631;29;20027;-96
2023/03/31 10:59:21;;;;;;;18.33;2.80;;;;;;;12.28;88.87;99293.78;4971581;28;20031;-96
2023/03/31 11:01:52;;;;;;;17.65;3.10;;;;;;;12.33;87.79;99294.59;4972536;29;20058;-96
2023/03/31 11:04:30;;;;;;;17.90;3.33;;;;;;;12.40;86.98;99295.41;4955804;29;20031;-96
2023/03/31 11:07:18;;;;;;;14.75;3.47;;;;;;;12.38;86.63;99297.16;4970843;29;20193;-96
2023/03/31 11:10:03;;;;;;;16.52;2.88;;;;;;;12.33;87.69;99293.75;4967910;28;20043;-96
2023/03/31 11:12:45;;;;;;;19.15;3.38;;;;;;;12.22;86.81;99303.41;4965062;28;20039;-97
2023/03/31 11:15:23;;;;;;;23.40;4.05;;;;;;;12.10;88.96;99297.38;4958645;28;20031;-96
2023/03/31 11:18:22;;;;;;;19.07;3.20;;;;;;;12.06;88.78;99293.06;4958929;28;20031;-96
2023/03/31 11:21:19;;;;;;;20.05;3.35;;;;;;;12.03;92.01;99300.91;4961916;28;20031;-96
2023/03/31 11:24:32;;;;;;;17.58;3.08;;;;;;;12.07;92.12;99288.72;4963371;29;20051;-96
2023/03/31 11:27:26;;;;;;;17.85;3.42;;;;;;;12.21;90.62;99281.66;4907629;29;20052;-96
2023/03/31 11:30:06;;;;;;;18.38;3.28;;;;;;;12.26;89.10;99277.25;4895829;29;20502;-96
2023/03/31 11:32:53;;;;;;;;;;;;;;;12.38;88.92;99278.88;4958030;28;20098;-96
2023/03/31 11:35:24;;;;;;;19.77;3.22;;;;;;;12.37;88.18;99260.59;4971462;29;19915;-96
2023/03/31 11:38:10;;;;;;;16.35;3.03;;;;;;;12.43;88.56;99268.41;4970270;28;20039;-96
2023/03/31 11:41:17;;;;;;;21.20;3.40;;;;;;;12.48;85.58;99264.00;4971914;28;20050;-97
2023/03/31 11:44:02;;;;;;;20.67;3.50;;;;;;;12.48;86.37;99254.44;4913317;29;20035;-96
2023/03/31 11:46:37;;;;;;;20.35;4.05;;;;;;;12.47;84.15;99262.25;4953145;28;20027;-96
2023/03/31 11:49:12;;;;;;;16.08;3.28;;;;;;;12.44;83.46;99249.22;4955750;28;20018;-96
2023/03/31 11:51:42;;;;;;;18.52;3.15;;;;;;;12.44;82.29;99262.28;4952598;28;20456;-96